Time;durP1;ratioP1;P1;durP2;ratioP2;P2;SDS_P1;SDS_P2;PMS_P1;PMS_P2;Temp;Humidity;BMP_temperature;BMP_pressure;BME280_temperature;BME280_humidity;BME280_pressure;Samples;Min_cycle;Max_cycle;Signal;HPM_P1;HPM_P2
2023/11/20 06:52:09;;;;;;;9.10;1.80;;;10.40;99.90;;;;;;1404508;23;20322;-83
2023/11/20 09:49:49;;;;;;;5.38;1.38;;;11.10;99.90;;;;;;1415615;23;20393;-82
2023/11/20 09:53:16;;;;;;;5.90;1.45;;;11.10;99.90;;;;;;4992523;28;20065;-84
2023/11/20 09:58:18;;;;;;;5.78;1.50;;;11.10;99.90;;;;;;5061068;23;20042;-85
2023/11/20 10:00:45;;;;;;;5.28;1.25;;;;;;;;;;4995639;28;20039;-86
2023/11/20 10:05:49;;;;;;;5.45;1.52;;;11.10;99.90;;;;;;5161220;23;20165;-83
2023/11/20 10:08:36;;;;;;;4.85;1.75;;;11.10;99.90;;;;;;4994288;28;20057;-86
2023/11/20 10:11:05;;;;;;;8.63;1.50;;;;;;;;;;4991221;28;20014;-85
2023/11/20 10:19:07;;;;;;;6.57;1.55;;;10.90;99.90;;;;;;4996012;28;20043;-82
2023/11/20 10:21:38;;;;;;;4.53;1.25;;;;;;;;;;4990373;28;20019;-85
2023/11/20 18:51:40;;;;;;;11.00;2.05;;;9.90;99.90;;;;;;4975319;28;20082;-79
2023/11/20 18:54:10;;;;;;;;;;;9.80;99.90;;;;;;4968697;28;20513;-81
2023/11/20 18:56:52;;;;;;;7.47;1.65;;;9.90;99.90;;;;;;4973203;28;19933;-80
2023/11/20 18:59:21;;;;;;;8.07;2.67;;;10.00;99.90;;;;;;4966572;28;20084;-80
2023/11/20 19:01:51;;;;;;;10.82;2.30;;;9.90;99.90;;;;;;4970048;28;20042;-80
2023/11/20 19:04:31;;;;;;;6.40;2.13;;;9.90;99.90;;;;;;4970561;28;20026;-81
2023/11/20 19:06:58;;;;;;;7.45;2.08;;;9.90;99.90;;;;;;4979450;28;20560;-79
2023/11/20 19:09:31;;;;;;;13.43;2.65;;;9.90;99.90;;;;;;4959798;28;20050;-80
2023/11/20 19:12:10;;;;;;;7.57;1.88;;;9.90;99.90;;;;;;4954220;28;20117;-80
2023/11/20 19:14:45;;;;;;;9.77;1.73;;;9.90;99.90;;;;;;4973085;28;20030;-80
2023/11/20 19:17:37;;;;;;;7.57;1.92;;;9.90;99.90;;;;;;4973086;28;20038;-79
2023/11/20 19:20:12;;;;;;;5.63;1.83;;;9.90;99.90;;;;;;4968833;28;20389;-80
2023/11/20 19:22:44;;;;;;;6.45;1.95;;;9.90;99.90;;;;;;4972024;28;20066;-81
2023/11/20 19:25:14;;;;;;;6.22;1.40;;;;;;;;;;4975132;28;20030;-79
2023/11/20 19:27:50;;;;;;;3.65;1.40;;;10.00;99.90;;;;;;4971162;28;20027;-80
2023/11/20 19:30:22;;;;;;;5.57;1.75;;;10.00;99.90;;;;;;4972997;28;20030;-80
2023/11/20 19:33:09;;;;;;;5.70;1.65;;;;;;;;;;4970716;28;20027;-80
2023/11/20 19:35:46;;;;;;;6.95;1.58;;;9.80;99.90;;;;;;4972065;28;20374;-81
2023/11/20 19:38:22;;;;;;;9.32;1.60;;;9.90;99.90;;;;;;4971010;28;20524;-81
2023/11/20 19:40:51;;;;;;;5.75;1.20;;;9.90;99.90;;;;;;4958512;28;20051;-81
2023/11/20 19:43:20;;;;;;;5.28;1.52;;;;;;;;;;4960010;28;20031;-80
2023/11/20 19:45:52;;;;;;;8.43;1.35;;;9.80;99.90;;;;;;4973679;28;20043;-82
2023/11/20 19:48:28;;;;;;;7.40;1.77;;;;;;;;;;4972513;28;20042;-81
2023/11/20 19:51:03;;;;;;;5.03;1.42;;;9.80;99.90;;;;;;4975837;28;20043;-82
2023/11/20 19:53:48;;;;;;;4.78;1.40;;;;;;;;;;4975296;28;20026;-79
2023/11/20 19:56:17;;;;;;;3.70;1.00;;;9.80;99.90;;;;;;4974216;28;20494;-80
2023/11/20 19:58:51;;;;;;;5.07;1.23;;;9.70;99.90;;;;;;4973431;28;20031;-79
2023/11/20 20:01:31;;;;;;;7.28;1.23;;;9.70;99.90;;;;;;4973012;28;20038;-81
2023/11/20 20:04:11;;;;;;;5.95;1.27;;;9.70;99.90;;;;;;4979809;28;20033;-79
2023/11/20 20:06:41;;;;;;;5.78;1.48;;;9.60;99.90;;;;;;4976136;28;20040;-81
2023/11/20 20:09:09;;;;;;;4.25;1.40;;;9.70;99.90;;;;;;4977971;28;20035;-81
2023/11/20 20:12:12;;;;;;;7.75;2.17;;;9.80;99.90;;;;;;4977934;28;20062;-81
2023/11/20 20:14:49;;;;;;;3.80;1.30;;;9.80;99.90;;;;;;4978616;28;20041;-83
2023/11/20 20:17:22;;;;;;;7.88;1.50;;;;;;;;;;4978693;28;20031;-81
2023/11/20 20:19:51;;;;;;;7.32;1.88;;;;;;;;;;4978405;28;20023;-81
2023/11/20 20:22:29;;;;;;;5.43;1.50;;;9.80;99.90;;;;;;4977776;28;20089;-81
2023/11/20 20:24:58;;;;;;;4.35;1.60;;;9.70;99.90;;;;;;4958220;28;20074;-81
2023/11/20 20:27:33;;;;;;;5.88;1.40;;;9.80;99.90;;;;;;4979688;28;20098;-80
2023/11/20 20:30:02;;;;;;;7.57;1.70;;;9.80;99.90;;;;;;4966082;28;20046;-80
2023/11/20 20:32:31;;;;;;;3.92;1.33;;;10.20;99.90;;;;;;4970393;28;20053;-80
2023/11/20 20:34:59;;;;;;;6.15;1.65;;;9.70;99.90;;;;;;4953994;28;20035;-80
2023/11/20 20:37:36;;;;;;;6.57;1.48;;;9.70;99.90;;;;;;4959910;28;20461;-81
2023/11/20 20:40:10;;;;;;;4.38;1.40;;;9.60;99.90;;;;;;4971619;28;20097;-80
2023/11/20 20:42:51;;;;;;;7.78;1.98;;;9.60;99.90;;;;;;4969345;28;20285;-80
2023/11/20 20:46:05;;;;;;;6.40;1.90;;;9.60;99.90;;;;;;4976588;28;20010;-82
2023/11/20 20:51:53;;;;;;;4.43;1.27;;;;;;;;;;5075483;23;20035;-82
2023/11/20 20:54:19;;;;;;;5.40;1.45;;;;;;;;;;4987416;28;20022;-81
2023/11/20 20:59:34;;;;;;;3.85;1.23;;;9.60;99.90;;;;;;4959954;29;20055;-81
2023/11/20 21:03:20;;;;;;;2.65;1.00;;;9.70;99.90;;;;;;4968321;28;20035;-80
2023/11/20 21:12:36;;;;;;;4.22;1.40;;;;;;;;;;4940954;29;20034;-81
2023/11/20 21:22:09;;;;;;;6.45;1.85;;;9.60;99.90;;;;;;4951981;28;20041;-80
2023/11/20 21:24:42;;;;;;;4.80;1.25;;;;;;;;;;4975681;28;20012;-80
2023/11/20 21:43:00;;;;;;;3.90;1.58;;;;;;;;;;5775668;23;20041;-81
2023/11/20 21:56:10;;;;;;;4.53;1.40;;;9.60;99.90;;;;;;4959185;29;20051;-81
2023/11/20 21:59:46;;;;;;;4.88;1.52;;;9.50;99.90;;;;;;4967108;29;20058;-81
2023/11/20 22:02:21;;;;;;;3.50;1.20;;;;;;;;;;4966099;28;20067;-81
2023/11/20 22:08:32;;;;;;;5.38;1.48;;;9.50;99.90;;;;;;4989957;28;20050;-81
2023/11/20 22:15:13;;;;;;;5.35;1.75;;;9.50;99.90;;;;;;4975872;28;20046;-82
2023/11/20 22:18:44;;;;;;;;;;;;;;;;;;;;;
